sensor_id;sensor_type;location;lat;lon;timestamp;P1;durP1;ratioP1;P2;durP2;ratioP2
71753;SDS011;59593;51.716;7.016;2024-01-30T00:00:50;19.47;;;15.93;;
71753;SDS011;59593;51.716;7.016;2024-01-30T00:03:16;21.17;;;15.60;;
71753;SDS011;59593;51.716;7.016;2024-01-30T00:05:43;19.10;;;15.10;;
71753;SDS011;59593;51.716;7.016;2024-01-30T00:08:09;20.27;;;15.37;;
71753;SDS011;59593;51.716;7.016;2024-01-30T00:10:34;20.13;;;14.37;;
71753;SDS011;59593;51.716;7.016;2024-01-30T00:13:01;19.17;;;15.00;;
71753;SDS011;59593;51.716;7.016;2024-01-30T00:15:27;19.23;;;15.17;;
71753;SDS011;59593;51.716;7.016;2024-01-30T00:17:53;19.73;;;14.87;;
71753;SDS011;59593;51.716;7.016;2024-01-30T00:20:18;16.97;;;14.13;;
71753;SDS011;59593;51.716;7.016;2024-01-30T00:22:45;17.27;;;13.33;;
71753;SDS011;59593;51.716;7.016;2024-01-30T00:25:11;19.07;;;14.23;;
71753;SDS011;59593;51.716;7.016;2024-01-30T00:27:36;16.07;;;13.57;;
71753;SDS011;59593;51.716;7.016;2024-01-30T00:30:02;16.13;;;13.00;;
71753;SDS011;59593;51.716;7.016;2024-01-30T00:32:28;15.60;;;13.03;;
71753;SDS011;59593;51.716;7.016;2024-01-30T00:34:53;17.67;;;12.93;;
71753;SDS011;59593;51.716;7.016;2024-01-30T00:37:19;17.13;;;13.37;;
71753;SDS011;59593;51.716;7.016;2024-01-30T00:39:45;20.43;;;13.20;;
71753;SDS011;59593;51.716;7.016;2024-01-30T00:42:10;18.90;;;13.17;;
71753;SDS011;59593;51.716;7.016;2024-01-30T00:44:36;14.97;;;12.30;;
71753;SDS011;59593;51.716;7.016;2024-01-30T00:47:04;17.80;;;13.40;;
71753;SDS011;59593;51.716;7.016;2024-01-30T00:49:30;17.33;;;12.67;;
71753;SDS011;59593;51.716;7.016;2024-01-30T00:51:56;17.20;;;13.63;;
71753;SDS011;59593;51.716;7.016;2024-01-30T00:54:21;16.30;;;12.63;;
71753;SDS011;59593;51.716;7.016;2024-01-30T00:56:47;16.27;;;12.23;;
71753;SDS011;59593;51.716;7.016;2024-01-30T00:59:13;18.30;;;12.83;;
71753;SDS011;59593;51.716;7.016;2024-01-30T01:01:38;15.93;;;12.10;;
71753;SDS011;59593;51.716;7.016;2024-01-30T01:04:04;15.63;;;12.23;;
71753;SDS011;59593;51.716;7.016;2024-01-30T01:06:29;15.77;;;12.20;;
71753;SDS011;59593;51.716;7.016;2024-01-30T01:08:55;15.10;;;11.97;;
71753;SDS011;59593;51.716;7.016;2024-01-30T01:11:20;14.03;;;12.10;;
71753;SDS011;59593;51.716;7.016;2024-01-30T01:13:46;17.60;;;12.70;;
71753;SDS011;59593;51.716;7.016;2024-01-30T01:16:12;17.40;;;12.23;;
71753;SDS011;59593;51.716;7.016;2024-01-30T01:18:38;16.10;;;12.67;;
71753;SDS011;59593;51.716;7.016;2024-01-30T01:21:04;14.87;;;11.90;;
71753;SDS011;59593;51.716;7.016;2024-01-30T01:23:30;17.20;;;12.40;;
71753;SDS011;59593;51.716;7.016;2024-01-30T01:25:55;15.10;;;11.77;;
71753;SDS011;59593;51.716;7.016;2024-01-30T01:28:21;15.00;;;11.30;;
71753;SDS011;59593;51.716;7.016;2024-01-30T01:30:47;16.50;;;12.27;;
71753;SDS011;59593;51.716;7.016;2024-01-30T01:33:12;15.07;;;12.00;;
71753;SDS011;59593;51.716;7.016;2024-01-30T01:35:39;13.83;;;11.57;;
71753;SDS011;59593;51.716;7.016;2024-01-30T01:38:05;15.80;;;11.40;;
71753;SDS011;59593;51.716;7.016;2024-01-30T01:40:30;15.67;;;12.37;;
71753;SDS011;59593;51.716;7.016;2024-01-30T01:42:56;16.70;;;12.27;;
71753;SDS011;59593;51.716;7.016;2024-01-30T01:45:22;17.40;;;11.60;;
71753;SDS011;59593;51.716;7.016;2024-01-30T01:47:50;14.37;;;11.17;;
71753;SDS011;59593;51.716;7.016;2024-01-30T01:50:16;13.50;;;11.07;;
71753;SDS011;59593;51.716;7.016;2024-01-30T01:52:47;15.40;;;11.50;;
71753;SDS011;59593;51.716;7.016;2024-01-30T01:55:13;13.87;;;11.30;;
71753;SDS011;59593;51.716;7.016;2024-01-30T01:57:40;13.87;;;11.33;;
71753;SDS011;59593;51.716;7.016;2024-01-30T02:00:06;13.00;;;11.10;;
71753;SDS011;59593;51.716;7.016;2024-01-30T02:02:35;15.20;;;11.40;;
71753;SDS011;59593;51.716;7.016;2024-01-30T02:05:01;14.13;;;10.90;;
71753;SDS011;59593;51.716;7.016;2024-01-30T02:07:28;14.60;;;11.30;;
71753;SDS011;59593;51.716;7.016;2024-01-30T02:09:54;12.83;;;10.87;;
71753;SDS011;59593;51.716;7.016;2024-01-30T02:12:20;13.73;;;10.90;;
71753;SDS011;59593;51.716;7.016;2024-01-30T02:14:46;15.33;;;10.70;;
71753;SDS011;59593;51.716;7.016;2024-01-30T02:17:13;12.73;;;10.30;;
71753;SDS011;59593;51.716;7.016;2024-01-30T02:19:39;13.13;;;10.83;;
71753;SDS011;59593;51.716;7.016;2024-01-30T02:22:05;14.03;;;11.00;;
71753;SDS011;59593;51.716;7.016;2024-01-30T02:24:31;15.80;;;11.13;;
71753;SDS011;59593;51.716;7.016;2024-01-30T02:26:56;14.30;;;11.07;;
71753;SDS011;59593;51.716;7.016;2024-01-30T02:29:22;15.57;;;11.20;;
71753;SDS011;59593;51.716;7.016;2024-01-30T02:31:48;13.83;;;10.90;;
71753;SDS011;59593;51.716;7.016;2024-01-30T02:34:14;14.53;;;11.07;;
71753;SDS011;59593;51.716;7.016;2024-01-30T02:36:42;13.50;;;10.37;;
71753;SDS011;59593;51.716;7.016;2024-01-30T02:39:09;13.40;;;10.77;;
71753;SDS011;59593;51.716;7.016;2024-01-30T02:41:34;14.57;;;10.63;;
71753;SDS011;59593;51.716;7.016;2024-01-30T02:44:01;13.13;;;10.43;;
71753;SDS011;59593;51.716;7.016;2024-01-30T02:46:27;13.97;;;10.40;;
71753;SDS011;59593;51.716;7.016;2024-01-30T02:48:53;15.77;;;11.90;;
71753;SDS011;59593;51.716;7.016;2024-01-30T02:51:18;15.03;;;10.90;;
71753;SDS011;59593;51.716;7.016;2024-01-30T02:53:44;12.60;;;9.97;;
71753;SDS011;59593;51.716;7.016;2024-01-30T02:56:10;14.13;;;11.03;;
71753;SDS011;59593;51.716;7.016;2024-01-30T02:58:36;14.20;;;10.57;;
71753;SDS011;59593;51.716;7.016;2024-01-30T03:01:02;13.20;;;10.20;;
71753;SDS011;59593;51.716;7.016;2024-01-30T03:03:28;13.67;;;10.30;;
71753;SDS011;59593;51.716;7.016;2024-01-30T03:05:53;11.70;;;9.77;;
71753;SDS011;59593;51.716;7.016;2024-01-30T03:08:19;15.53;;;10.23;;
71753;SDS011;59593;51.716;7.016;2024-01-30T03:10:45;13.80;;;10.30;;
71753;SDS011;59593;51.716;7.016;2024-01-30T03:13:10;12.70;;;10.70;;
71753;SDS011;59593;51.716;7.016;2024-01-30T03:15:36;12.03;;;9.90;;
71753;SDS011;59593;51.716;7.016;2024-01-30T03:18:02;13.53;;;9.90;;
71753;SDS011;59593;51.716;7.016;2024-01-30T03:20:28;14.10;;;10.17;;
71753;SDS011;59593;51.716;7.016;2024-01-30T03:22:55;11.73;;;9.97;;
71753;SDS011;59593;51.716;7.016;2024-01-30T03:25:21;13.30;;;10.33;;
71753;SDS011;59593;51.716;7.016;2024-01-30T03:27:46;16.50;;;10.53;;
71753;SDS011;59593;51.716;7.016;2024-01-30T03:30:12;12.07;;;9.60;;
71753;SDS011;59593;51.716;7.016;2024-01-30T03:32:38;13.40;;;9.73;;
71753;SDS011;59593;51.716;7.016;2024-01-30T03:35:03;13.37;;;10.10;;
71753;SDS011;59593;51.716;7.016;2024-01-30T03:37:29;13.13;;;10.63;;
71753;SDS011;59593;51.716;7.016;2024-01-30T03:39:55;13.13;;;10.17;;
71753;SDS011;59593;51.716;7.016;2024-01-30T03:42:20;13.13;;;9.80;;
71753;SDS011;59593;51.716;7.016;2024-01-30T03:44:47;11.43;;;9.60;;
71753;SDS011;59593;51.716;7.016;2024-01-30T03:47:13;14.57;;;10.30;;
71753;SDS011;59593;51.716;7.016;2024-01-30T03:49:38;12.43;;;10.33;;
71753;SDS011;59593;51.716;7.016;2024-01-30T03:52:05;12.27;;;10.33;;
71753;SDS011;59593;51.716;7.016;2024-01-30T03:54:30;13.90;;;11.50;;
71753;SDS011;59593;51.716;7.016;2024-01-30T03:56:56;15.57;;;11.03;;
71753;SDS011;59593;51.716;7.016;2024-01-30T03:59:21;13.97;;;10.17;;
71753;SDS011;59593;51.716;7.016;2024-01-30T04:01:49;14.07;;;10.23;;
71753;SDS011;59593;51.716;7.016;2024-01-30T04:04:16;14.23;;;10.87;;
71753;SDS011;59593;51.716;7.016;2024-01-30T04:06:42;11.57;;;10.07;;
71753;SDS011;59593;51.716;7.016;2024-01-30T04:09:08;13.00;;;10.40;;
71753;SDS011;59593;51.716;7.016;2024-01-30T04:11:34;12.20;;;9.47;;
71753;SDS011;59593;51.716;7.016;2024-01-30T04:14:00;13.30;;;9.77;;
71753;SDS011;59593;51.716;7.016;2024-01-30T04:16:25;11.27;;;9.73;;
71753;SDS011;59593;51.716;7.016;2024-01-30T04:18:51;11.47;;;9.47;;
71753;SDS011;59593;51.716;7.016;2024-01-30T04:21:17;12.30;;;10.17;;
71753;SDS011;59593;51.716;7.016;2024-01-30T04:23:43;13.10;;;10.03;;
71753;SDS011;59593;51.716;7.016;2024-01-30T04:26:08;11.67;;;10.00;;
71753;SDS011;59593;51.716;7.016;2024-01-30T04:28:34;12.13;;;9.73;;
71753;SDS011;59593;51.716;7.016;2024-01-30T04:31:00;13.20;;;10.23;;
71753;SDS011;59593;51.716;7.016;2024-01-30T04:33:25;11.57;;;10.00;;
71753;SDS011;59593;51.716;7.016;2024-01-30T04:35:51;12.47;;;10.47;;
71753;SDS011;59593;51.716;7.016;2024-01-30T04:38:17;14.50;;;10.67;;
71753;SDS011;59593;51.716;7.016;2024-01-30T04:40:42;12.20;;;10.43;;
71753;SDS011;59593;51.716;7.016;2024-01-30T04:43:08;13.43;;;10.33;;
71753;SDS011;59593;51.716;7.016;2024-01-30T04:45:34;13.47;;;10.17;;
71753;SDS011;59593;51.716;7.016;2024-01-30T04:47:59;13.17;;;10.13;;
71753;SDS011;59593;51.716;7.016;2024-01-30T04:50:25;11.37;;;9.73;;
71753;SDS011;59593;51.716;7.016;2024-01-30T04:52:51;14.47;;;10.67;;
71753;SDS011;59593;51.716;7.016;2024-01-30T04:55:17;12.60;;;10.10;;
71753;SDS011;59593;51.716;7.016;2024-01-30T04:57:43;13.90;;;10.20;;
71753;SDS011;59593;51.716;7.016;2024-01-30T05:00:08;12.33;;;10.40;;
71753;SDS011;59593;51.716;7.016;2024-01-30T05:02:34;13.00;;;10.13;;
71753;SDS011;59593;51.716;7.016;2024-01-30T05:05:00;13.00;;;10.30;;
71753;SDS011;59593;51.716;7.016;2024-01-30T05:07:26;10.40;;;9.23;;
71753;SDS011;59593;51.716;7.016;2024-01-30T05:09:51;10.97;;;9.33;;
71753;SDS011;59593;51.716;7.016;2024-01-30T05:12:17;14.47;;;10.33;;
71753;SDS011;59593;51.716;7.016;2024-01-30T05:14:42;12.57;;;10.27;;
71753;SDS011;59593;51.716;7.016;2024-01-30T05:17:08;12.07;;;9.90;;
71753;SDS011;59593;51.716;7.016;2024-01-30T05:19:35;13.33;;;9.70;;
71753;SDS011;59593;51.716;7.016;2024-01-30T05:22:01;12.33;;;10.40;;
71753;SDS011;59593;51.716;7.016;2024-01-30T05:24:26;12.73;;;10.40;;
71753;SDS011;59593;51.716;7.016;2024-01-30T05:26:52;12.50;;;10.50;;
71753;SDS011;59593;51.716;7.016;2024-01-30T05:29:17;15.33;;;10.70;;
71753;SDS011;59593;51.716;7.016;2024-01-30T05:31:43;14.20;;;10.70;;
71753;SDS011;59593;51.716;7.016;2024-01-30T05:34:08;12.80;;;10.93;;
71753;SDS011;59593;51.716;7.016;2024-01-30T05:36:34;15.10;;;11.13;;
71753;SDS011;59593;51.716;7.016;2024-01-30T05:39:00;12.30;;;10.40;;
71753;SDS011;59593;51.716;7.016;2024-01-30T05:41:26;10.77;;;9.63;;
71753;SDS011;59593;51.716;7.016;2024-01-30T05:43:51;13.67;;;10.13;;
71753;SDS011;59593;51.716;7.016;2024-01-30T05:46:17;14.20;;;10.50;;
71753;SDS011;59593;51.716;7.016;2024-01-30T05:48:42;14.97;;;10.23;;
71753;SDS011;59593;51.716;7.016;2024-01-30T05:51:08;13.57;;;10.17;;
71753;SDS011;59593;51.716;7.016;2024-01-30T05:53:34;13.07;;;10.40;;
71753;SDS011;59593;51.716;7.016;2024-01-30T05:56:03;13.37;;;10.43;;
71753;SDS011;59593;51.716;7.016;2024-01-30T05:58:28;15.20;;;11.13;;
71753;SDS011;59593;51.716;7.016;2024-01-30T06:00:56;14.97;;;10.70;;
71753;SDS011;59593;51.716;7.016;2024-01-30T06:03:22;11.80;;;10.23;;
71753;SDS011;59593;51.716;7.016;2024-01-30T06:05:48;14.87;;;11.43;;
71753;SDS011;59593;51.716;7.016;2024-01-30T06:08:13;15.83;;;11.97;;
71753;SDS011;59593;51.716;7.016;2024-01-30T06:10:39;15.50;;;11.57;;
71753;SDS011;59593;51.716;7.016;2024-01-30T06:13:05;15.33;;;11.23;;
71753;SDS011;59593;51.716;7.016;2024-01-30T06:15:31;15.50;;;11.57;;
71753;SDS011;59593;51.716;7.016;2024-01-30T06:17:57;13.90;;;11.23;;
71753;SDS011;59593;51.716;7.016;2024-01-30T06:20:23;15.57;;;12.23;;
71753;SDS011;59593;51.716;7.016;2024-01-30T06:22:49;15.10;;;11.87;;
71753;SDS011;59593;51.716;7.016;2024-01-30T06:25:14;15.33;;;10.77;;
71753;SDS011;59593;51.716;7.016;2024-01-30T06:27:41;14.27;;;12.00;;
71753;SDS011;59593;51.716;7.016;2024-01-30T06:30:07;15.10;;;11.57;;
71753;SDS011;59593;51.716;7.016;2024-01-30T06:32:33;14.97;;;11.37;;
71753;SDS011;59593;51.716;7.016;2024-01-30T06:35:00;11.93;;;10.27;;
71753;SDS011;59593;51.716;7.016;2024-01-30T06:37:27;17.00;;;13.90;;
71753;SDS011;59593;51.716;7.016;2024-01-30T06:39:52;17.60;;;14.40;;
71753;SDS011;59593;51.716;7.016;2024-01-30T06:42:18;17.07;;;12.47;;
71753;SDS011;59593;51.716;7.016;2024-01-30T06:44:44;14.27;;;12.40;;
71753;SDS011;59593;51.716;7.016;2024-01-30T06:47:09;15.73;;;13.23;;
71753;SDS011;59593;51.716;7.016;2024-01-30T06:49:35;16.73;;;13.53;;
71753;SDS011;59593;51.716;7.016;2024-01-30T06:52:04;16.20;;;12.93;;
71753;SDS011;59593;51.716;7.016;2024-01-30T06:54:30;16.00;;;12.10;;
71753;SDS011;59593;51.716;7.016;2024-01-30T06:56:56;19.20;;;13.40;;
71753;SDS011;59593;51.716;7.016;2024-01-30T06:59:21;14.27;;;11.80;;
71753;SDS011;59593;51.716;7.016;2024-01-30T07:01:47;16.63;;;12.77;;
71753;SDS011;59593;51.716;7.016;2024-01-30T07:04:13;17.47;;;12.70;;
71753;SDS011;59593;51.716;7.016;2024-01-30T07:06:38;18.67;;;13.77;;
71753;SDS011;59593;51.716;7.016;2024-01-30T07:09:04;17.07;;;12.53;;
71753;SDS011;59593;51.716;7.016;2024-01-30T07:11:30;15.83;;;12.00;;
71753;SDS011;59593;51.716;7.016;2024-01-30T07:13:56;14.67;;;11.93;;
71753;SDS011;59593;51.716;7.016;2024-01-30T07:16:21;15.27;;;12.27;;
71753;SDS011;59593;51.716;7.016;2024-01-30T07:18:48;17.27;;;12.20;;
71753;SDS011;59593;51.716;7.016;2024-01-30T07:21:14;14.77;;;11.27;;
71753;SDS011;59593;51.716;7.016;2024-01-30T07:23:40;14.63;;;11.63;;
71753;SDS011;59593;51.716;7.016;2024-01-30T07:26:07;13.07;;;11.03;;
71753;SDS011;59593;51.716;7.016;2024-01-30T07:28:33;15.67;;;11.90;;
71753;SDS011;59593;51.716;7.016;2024-01-30T07:31:00;17.60;;;11.90;;
71753;SDS011;59593;51.716;7.016;2024-01-30T07:33:26;13.87;;;11.63;;
71753;SDS011;59593;51.716;7.016;2024-01-30T07:35:54;15.57;;;12.07;;
71753;SDS011;59593;51.716;7.016;2024-01-30T07:38:20;16.43;;;12.70;;
71753;SDS011;59593;51.716;7.016;2024-01-30T07:40:46;19.60;;;13.77;;
71753;SDS011;59593;51.716;7.016;2024-01-30T07:43:12;16.30;;;12.47;;
71753;SDS011;59593;51.716;7.016;2024-01-30T07:45:37;14.70;;;11.50;;
71753;SDS011;59593;51.716;7.016;2024-01-30T07:48:04;13.37;;;10.93;;
71753;SDS011;59593;51.716;7.016;2024-01-30T07:50:33;16.57;;;12.93;;
71753;SDS011;59593;51.716;7.016;2024-01-30T07:52:59;17.47;;;13.27;;
71753;SDS011;59593;51.716;7.016;2024-01-30T07:55:26;15.30;;;12.63;;
71753;SDS011;59593;51.716;7.016;2024-01-30T07:57:56;18.83;;;13.40;;
71753;SDS011;59593;51.716;7.016;2024-01-30T08:00:22;14.67;;;12.37;;
71753;SDS011;59593;51.716;7.016;2024-01-30T08:02:48;17.13;;;12.80;;
71753;SDS011;59593;51.716;7.016;2024-01-30T08:05:14;15.73;;;13.07;;
71753;SDS011;59593;51.716;7.016;2024-01-30T08:07:40;17.07;;;13.10;;
71753;SDS011;59593;51.716;7.016;2024-01-30T08:10:07;16.27;;;12.03;;
71753;SDS011;59593;51.716;7.016;2024-01-30T08:12:33;15.50;;;12.57;;
71753;SDS011;59593;51.716;7.016;2024-01-30T08:14:59;16.43;;;11.80;;
71753;SDS011;59593;51.716;7.016;2024-01-30T08:17:24;13.70;;;11.27;;
71753;SDS011;59593;51.716;7.016;2024-01-30T08:19:50;14.60;;;11.50;;
71753;SDS011;59593;51.716;7.016;2024-01-30T08:22:15;15.47;;;11.73;;
71753;SDS011;59593;51.716;7.016;2024-01-30T08:24:41;15.27;;;10.90;;
71753;SDS011;59593;51.716;7.016;2024-01-30T08:27:07;13.43;;;10.63;;
71753;SDS011;59593;51.716;7.016;2024-01-30T08:29:35;12.93;;;9.80;;
71753;SDS011;59593;51.716;7.016;2024-01-30T08:32:00;13.93;;;9.13;;
71753;SDS011;59593;51.716;7.016;2024-01-30T08:34:26;11.87;;;8.60;;
71753;SDS011;59593;51.716;7.016;2024-01-30T08:36:52;10.77;;;8.33;;
71753;SDS011;59593;51.716;7.016;2024-01-30T08:39:18;13.63;;;8.70;;
71753;SDS011;59593;51.716;7.016;2024-01-30T08:41:44;13.37;;;8.87;;
71753;SDS011;59593;51.716;7.016;2024-01-30T08:44:09;14.10;;;9.60;;
71753;SDS011;59593;51.716;7.016;2024-01-30T08:46:36;14.00;;;9.27;;
71753;SDS011;59593;51.716;7.016;2024-01-30T08:49:02;14.13;;;9.83;;
71753;SDS011;59593;51.716;7.016;2024-01-30T08:51:29;17.60;;;11.70;;
71753;SDS011;59593;51.716;7.016;2024-01-30T08:53:54;12.00;;;9.37;;
71753;SDS011;59593;51.716;7.016;2024-01-30T08:56:20;15.67;;;11.77;;
71753;SDS011;59593;51.716;7.016;2024-01-30T08:58:46;16.80;;;13.13;;
71753;SDS011;59593;51.716;7.016;2024-01-30T09:01:11;15.07;;;10.70;;
71753;SDS011;59593;51.716;7.016;2024-01-30T09:03:37;12.60;;;9.70;;
71753;SDS011;59593;51.716;7.016;2024-01-30T09:06:08;10.30;;;8.50;;
71753;SDS011;59593;51.716;7.016;2024-01-30T09:08:34;11.57;;;8.97;;
71753;SDS011;59593;51.716;7.016;2024-01-30T09:10:59;13.13;;;8.43;;
71753;SDS011;59593;51.716;7.016;2024-01-30T09:13:25;10.33;;;8.57;;
71753;SDS011;59593;51.716;7.016;2024-01-30T09:15:51;13.53;;;8.87;;
71753;SDS011;59593;51.716;7.016;2024-01-30T09:18:17;10.17;;;7.40;;
71753;SDS011;59593;51.716;7.016;2024-01-30T09:20:43;11.43;;;7.57;;
71753;SDS011;59593;51.716;7.016;2024-01-30T09:23:12;10.47;;;7.40;;
71753;SDS011;59593;51.716;7.016;2024-01-30T09:25:38;9.80;;;6.93;;
71753;SDS011;59593;51.716;7.016;2024-01-30T09:28:04;12.20;;;8.00;;
71753;SDS011;59593;51.716;7.016;2024-01-30T09:30:30;10.23;;;7.87;;
71753;SDS011;59593;51.716;7.016;2024-01-30T09:32:55;13.10;;;7.90;;
71753;SDS011;59593;51.716;7.016;2024-01-30T09:35:21;12.03;;;7.53;;
71753;SDS011;59593;51.716;7.016;2024-01-30T09:37:47;9.03;;;7.20;;
71753;SDS011;59593;51.716;7.016;2024-01-30T09:40:13;10.07;;;7.57;;
71753;SDS011;59593;51.716;7.016;2024-01-30T09:42:43;12.47;;;7.87;;
71753;SDS011;59593;51.716;7.016;2024-01-30T09:45:11;17.27;;;11.20;;
71753;SDS011;59593;51.716;7.016;2024-01-30T09:47:42;14.87;;;10.00;;
71753;SDS011;59593;51.716;7.016;2024-01-30T09:50:09;13.97;;;9.90;;
71753;SDS011;59593;51.716;7.016;2024-01-30T09:52:36;12.30;;;9.17;;
71753;SDS011;59593;51.716;7.016;2024-01-30T09:55:02;15.20;;;10.00;;
71753;SDS011;59593;51.716;7.016;2024-01-30T09:57:28;11.30;;;8.37;;
71753;SDS011;59593;51.716;7.016;2024-01-30T09:59:54;11.47;;;8.07;;
71753;SDS011;59593;51.716;7.016;2024-01-30T10:02:20;13.80;;;8.40;;
71753;SDS011;59593;51.716;7.016;2024-01-30T10:04:49;12.20;;;8.20;;
71753;SDS011;59593;51.716;7.016;2024-01-30T10:07:15;10.35;;;7.78;;
71753;SDS011;59593;51.716;7.016;2024-01-30T10:09:41;11.00;;;7.90;;
71753;SDS011;59593;51.716;7.016;2024-01-30T10:12:08;11.80;;;7.43;;
71753;SDS011;59593;51.716;7.016;2024-01-30T10:14:37;11.60;;;7.80;;
71753;SDS011;59593;51.716;7.016;2024-01-30T10:17:07;14.73;;;10.77;;
71753;SDS011;59593;51.716;7.016;2024-01-30T10:19:40;27.40;;;18.90;;
71753;SDS011;59593;51.716;7.016;2024-01-30T10:22:06;17.27;;;12.47;;
71753;SDS011;59593;51.716;7.016;2024-01-30T10:24:35;12.47;;;8.40;;
71753;SDS011;59593;51.716;7.016;2024-01-30T10:27:01;12.53;;;8.73;;
71753;SDS011;59593;51.716;7.016;2024-01-30T10:29:27;11.27;;;8.07;;
71753;SDS011;59593;51.716;7.016;2024-01-30T10:31:57;12.20;;;7.73;;
71753;SDS011;59593;51.716;7.016;2024-01-30T10:34:27;10.65;;;7.65;;
71753;SDS011;59593;51.716;7.016;2024-01-30T10:37:15;10.03;;;7.47;;
71753;SDS011;59593;51.716;7.016;2024-01-30T10:39:41;10.40;;;7.65;;
71753;SDS011;59593;51.716;7.016;2024-01-30T10:42:11;11.23;;;7.20;;
71753;SDS011;59593;51.716;7.016;2024-01-30T10:47:13;11.63;;;7.27;;
71753;SDS011;59593;51.716;7.016;2024-01-30T10:49:43;12.00;;;7.10;;
71753;SDS011;59593;51.716;7.016;2024-01-30T10:52:11;12.20;;;7.15;;
71753;SDS011;59593;51.716;7.016;2024-01-30T10:54:40;14.50;;;7.47;;
71753;SDS011;59593;51.716;7.016;2024-01-30T10:57:09;10.77;;;7.43;;
71753;SDS011;59593;51.716;7.016;2024-01-30T10:59:36;11.57;;;7.57;;
71753;SDS011;59593;51.716;7.016;2024-01-30T11:02:02;12.57;;;8.07;;
71753;SDS011;59593;51.716;7.016;2024-01-30T11:04:35;11.23;;;7.80;;
71753;SDS011;59593;51.716;7.016;2024-01-30T11:07:15;13.27;;;7.90;;
71753;SDS011;59593;51.716;7.016;2024-01-30T11:12:26;12.57;;;7.47;;
71753;SDS011;59593;51.716;7.016;2024-01-30T11:15:02;14.77;;;7.93;;
71753;SDS011;59593;51.716;7.016;2024-01-30T11:17:49;12.90;;;8.15;;
71753;SDS011;59593;51.716;7.016;2024-01-30T11:20:22;13.05;;;7.80;;
71753;SDS011;59593;51.716;7.016;2024-01-30T11:22:51;12.68;;;7.97;;
71753;SDS011;59593;51.716;7.016;2024-01-30T11:25:19;15.40;;;7.83;;
71753;SDS011;59593;51.716;7.016;2024-01-30T11:27:46;11.80;;;7.85;;
71753;SDS011;59593;51.716;7.016;2024-01-30T11:30:24;14.38;;;8.02;;
71753;SDS011;59593;51.716;7.016;2024-01-30T11:33:04;14.27;;;8.50;;
71753;SDS011;59593;51.716;7.016;2024-01-30T11:35:37;13.55;;;8.18;;
71753;SDS011;59593;51.716;7.016;2024-01-30T11:38:04;12.48;;;8.13;;
71753;SDS011;59593;51.716;7.016;2024-01-30T11:40:31;13.63;;;8.15;;
71753;SDS011;59593;51.716;7.016;2024-01-30T11:42:58;13.57;;;7.85;;
71753;SDS011;59593;51.716;7.016;2024-01-30T11:45:26;13.93;;;8.38;;
71753;SDS011;59593;51.716;7.016;2024-01-30T11:47:52;13.50;;;7.90;;
71753;SDS011;59593;51.716;7.016;2024-01-30T11:50:18;12.52;;;8.02;;
71753;SDS011;59593;51.716;7.016;2024-01-30T11:52:44;12.77;;;8.13;;
71753;SDS011;59593;51.716;7.016;2024-01-30T11:55:10;11.67;;;7.50;;
71753;SDS011;59593;51.716;7.016;2024-01-30T11:57:35;13.52;;;8.48;;
71753;SDS011;59593;51.716;7.016;2024-01-30T12:00:05;14.43;;;8.30;;
71753;SDS011;59593;51.716;7.016;2024-01-30T12:02:38;11.88;;;7.78;;
71753;SDS011;59593;51.716;7.016;2024-01-30T12:05:07;12.25;;;7.70;;
71753;SDS011;59593;51.716;7.016;2024-01-30T12:07:33;13.98;;;8.32;;
71753;SDS011;59593;51.716;7.016;2024-01-30T12:09:59;13.18;;;8.25;;
71753;SDS011;59593;51.716;7.016;2024-01-30T12:12:25;15.68;;;8.63;;
71753;SDS011;59593;51.716;7.016;2024-01-30T12:14:52;10.60;;;7.87;;
71753;SDS011;59593;51.716;7.016;2024-01-30T12:17:28;12.60;;;7.60;;
71753;SDS011;59593;51.716;7.016;2024-01-30T12:20:03;15.40;;;8.27;;
71753;SDS011;59593;51.716;7.016;2024-01-30T12:25:39;13.07;;;8.45;;
71753;SDS011;59593;51.716;7.016;2024-01-30T12:27:58;11.33;;;7.60;;
71753;SDS011;59593;51.716;7.016;2024-01-30T12:30:24;12.97;;;8.17;;
71753;SDS011;59593;51.716;7.016;2024-01-30T12:32:51;11.07;;;7.43;;
71753;SDS011;59593;51.716;7.016;2024-01-30T12:35:17;12.77;;;8.10;;
71753;SDS011;59593;51.716;7.016;2024-01-30T12:37:45;14.38;;;7.80;;
71753;SDS011;59593;51.716;7.016;2024-01-30T12:40:11;13.85;;;7.68;;
71753;SDS011;59593;51.716;7.016;2024-01-30T12:42:39;12.07;;;7.80;;
71753;SDS011;59593;51.716;7.016;2024-01-30T12:45:07;14.75;;;7.63;;
71753;SDS011;59593;51.716;7.016;2024-01-30T12:47:34;10.07;;;7.35;;
71753;SDS011;59593;51.716;7.016;2024-01-30T12:50:00;11.55;;;8.10;;
71753;SDS011;59593;51.716;7.016;2024-01-30T12:52:25;13.23;;;7.57;;
71753;SDS011;59593;51.716;7.016;2024-01-30T12:54:51;11.73;;;7.35;;
71753;SDS011;59593;51.716;7.016;2024-01-30T12:57:17;11.60;;;7.97;;
71753;SDS011;59593;51.716;7.016;2024-01-30T12:59:44;12.10;;;7.70;;
71753;SDS011;59593;51.716;7.016;2024-01-30T13:02:10;11.37;;;7.20;;
71753;SDS011;59593;51.716;7.016;2024-01-30T13:04:37;11.60;;;7.68;;
71753;SDS011;59593;51.716;7.016;2024-01-30T13:07:02;13.02;;;8.43;;
71753;SDS011;59593;51.716;7.016;2024-01-30T13:09:29;11.77;;;8.07;;
71753;SDS011;59593;51.716;7.016;2024-01-30T13:11:56;13.07;;;7.85;;
71753;SDS011;59593;51.716;7.016;2024-01-30T13:14:21;18.77;;;8.50;;
71753;SDS011;59593;51.716;7.016;2024-01-30T13:16:47;10.90;;;7.97;;
71753;SDS011;59593;51.716;7.016;2024-01-30T13:19:12;15.05;;;8.15;;
71753;SDS011;59593;51.716;7.016;2024-01-30T13:21:38;13.37;;;7.83;;
71753;SDS011;59593;51.716;7.016;2024-01-30T13:24:04;14.80;;;8.32;;
71753;SDS011;59593;51.716;7.016;2024-01-30T13:26:31;13.57;;;8.25;;
71753;SDS011;59593;51.716;7.016;2024-01-30T13:28:59;14.10;;;8.47;;
71753;SDS011;59593;51.716;7.016;2024-01-30T13:31:24;15.77;;;8.27;;
71753;SDS011;59593;51.716;7.016;2024-01-30T13:33:50;11.70;;;7.43;;
71753;SDS011;59593;51.716;7.016;2024-01-30T13:36:15;12.13;;;7.90;;
71753;SDS011;59593;51.716;7.016;2024-01-30T13:38:41;18.38;;;8.88;;
71753;SDS011;59593;51.716;7.016;2024-01-30T13:41:07;14.73;;;8.80;;
71753;SDS011;59593;51.716;7.016;2024-01-30T13:43:32;11.45;;;7.85;;
71753;SDS011;59593;51.716;7.016;2024-01-30T13:46:00;13.98;;;8.00;;
71753;SDS011;59593;51.716;7.016;2024-01-30T13:48:25;14.57;;;8.10;;
71753;SDS011;59593;51.716;7.016;2024-01-30T13:50:51;13.10;;;8.35;;
71753;SDS011;59593;51.716;7.016;2024-01-30T13:53:18;16.33;;;8.43;;
71753;SDS011;59593;51.716;7.016;2024-01-30T13:55:43;13.27;;;7.72;;
71753;SDS011;59593;51.716;7.016;2024-01-30T13:58:09;12.10;;;8.10;;
71753;SDS011;59593;51.716;7.016;2024-01-30T14:00:34;11.02;;;7.97;;
71753;SDS011;59593;51.716;7.016;2024-01-30T14:03:00;14.53;;;8.23;;
71753;SDS011;59593;51.716;7.016;2024-01-30T14:05:26;13.07;;;8.43;;
71753;SDS011;59593;51.716;7.016;2024-01-30T14:07:54;14.53;;;8.23;;
71753;SDS011;59593;51.716;7.016;2024-01-30T14:10:22;15.23;;;9.45;;
71753;SDS011;59593;51.716;7.016;2024-01-30T14:12:48;14.10;;;8.35;;
71753;SDS011;59593;51.716;7.016;2024-01-30T14:15:14;11.18;;;8.27;;
71753;SDS011;59593;51.716;7.016;2024-01-30T14:17:40;15.60;;;8.32;;
71753;SDS011;59593;51.716;7.016;2024-01-30T14:20:06;11.50;;;8.20;;
71753;SDS011;59593;51.716;7.016;2024-01-30T14:22:35;12.25;;;8.35;;
71753;SDS011;59593;51.716;7.016;2024-01-30T14:25:01;13.82;;;8.60;;
71753;SDS011;59593;51.716;7.016;2024-01-30T14:27:30;13.95;;;8.30;;
71753;SDS011;59593;51.716;7.016;2024-01-30T14:29:56;11.43;;;8.25;;
71753;SDS011;59593;51.716;7.016;2024-01-30T14:32:23;9.93;;;7.53;;